Time;durP1;ratioP1;P1;durP2;ratioP2;P2;SDS_P1;SDS_P2;PMS_P1;PMS_P2;Temp;Humidity;BMP_temperature;BMP_pressure;BME280_temperature;BME280_humidity;BME280_pressure;Samples;Min_cycle;Max_cycle;Signal;HPM_P1;HPM_P2
2022/10/05 00:01:28;;;;;;;13.07;8.40;;;;;;;13.93;85.40;101708.38;5037460;28;20063;-57
2022/10/05 00:04:05;;;;;;;13.95;8.57;;;;;;;13.91;85.99;101706.88;5048205;28;20036;-58
2022/10/05 00:06:30;;;;;;;13.23;8.48;;;;;;;13.89;86.01;101703.50;5048473;28;20041;-57
2022/10/05 00:08:55;;;;;;;12.68;9.10;;;;;;;13.87;86.19;101703.69;5044884;28;20021;-58
2022/10/05 00:11:21;;;;;;;18.20;9.18;;;;;;;13.87;86.17;101701.03;5038552;28;20467;-58
2022/10/05 00:13:46;;;;;;;13.50;9.02;;;;;;;13.85;86.75;101701.19;5044507;28;20059;-57
2022/10/05 00:16:17;;;;;;;14.50;9.75;;;;;;;13.86;86.61;101702.00;5043409;28;20041;-57
2022/10/05 00:18:47;;;;;;;15.52;8.80;;;;;;;13.86;86.78;101702.00;5044920;28;20083;-57
2022/10/05 00:21:18;;;;;;;16.05;9.00;;;;;;;13.87;86.86;101702.84;5048703;28;20079;-58
2022/10/05 00:23:43;;;;;;;16.90;9.07;;;;;;;13.84;86.75;101688.84;5041422;28;20044;-58
2022/10/05 00:26:17;;;;;;;13.57;9.02;;;;;;;13.78;87.04;101678.00;5043441;28;20500;-58
2022/10/05 00:28:42;;;;;;;19.25;9.23;;;;;;;13.80;87.11;101676.84;5041142;28;20439;-58
2022/10/05 00:31:17;;;;;;;15.20;9.02;;;;;;;13.83;87.11;101694.34;5045902;28;20037;-59
2022/10/05 00:33:43;;;;;;;16.88;9.63;;;;;;;13.81;86.90;101688.34;5036204;28;20052;-57
2022/10/05 00:36:08;;;;;;;14.30;9.02;;;;;;;13.81;87.15;101693.69;5042733;28;20079;-57
2022/10/05 00:38:33;;;;;;;12.95;9.25;;;;;;;13.81;87.16;101678.50;5050393;28;20119;-58
2022/10/05 00:41:31;;;;;;;15.48;9.65;;;;;;;13.82;87.48;101685.50;5041005;28;20124;-57
2022/10/05 00:44:18;;;;;;;13.93;9.20;;;;;;;13.79;87.29;101677.00;5039384;28;20018;-58
2022/10/05 00:46:43;;;;;;;18.42;10.13;;;;;;;13.78;87.48;101678.84;5033730;28;20094;-58
2022/10/05 00:49:27;;;;;;;15.98;10.32;;;;;;;13.77;87.57;101681.66;5051348;28;20040;-58
2022/10/05 00:52:19;;;;;;;14.82;9.73;;;;;;;13.77;87.42;101687.81;5036927;28;20033;-58
2022/10/05 00:54:56;;;;;;;15.70;9.77;;;;;;;13.71;87.52;101675.97;5044525;28;20131;-57
2022/10/05 00:57:43;;;;;;;18.27;9.85;;;;;;;13.75;87.83;101681.81;5037477;28;20559;-58
2022/10/05 01:00:12;;;;;;;13.35;9.27;;;;;;;13.72;87.71;101676.81;5033703;28;20036;-58
2022/10/05 01:02:49;;;;;;;16.58;10.07;;;;;;;13.73;88.16;101678.50;5037496;28;20030;-58
2022/10/05 01:05:53;;;;;;;15.35;9.65;;;;;;;13.75;87.86;101673.81;5044669;28;20060;-58
2022/10/05 01:08:27;;;;;;;14.85;10.02;;;;;;;13.71;88.15;101678.63;5043244;28;20037;-58
2022/10/05 01:11:02;;;;;;;15.43;9.52;;;;;;;13.70;88.29;101668.97;5040150;28;20029;-57
2022/10/05 01:13:56;;;;;;;16.48;9.93;;;;;;;13.72;88.23;101668.81;5044293;28;20040;-58
2022/10/05 01:16:36;;;;;;;15.00;9.68;;;;;;;13.69;88.40;101658.47;5039210;28;20090;-58
2022/10/05 01:19:34;;;;;;;16.95;9.68;;;;;;;13.71;88.27;101654.66;5037531;28;20025;-57
2022/10/05 01:22:04;;;;;;;16.13;10.05;;;;;;;13.67;88.41;101649.81;5036365;28;20025;-57
2022/10/05 01:24:43;;;;;;;14.85;9.63;;;;;;;13.65;88.86;101651.78;5038961;28;20029;-57
2022/10/05 01:27:17;;;;;;;15.82;9.90;;;;;;;13.66;88.72;101648.16;5050550;28;20033;-57
2022/10/05 01:29:51;;;;;;;16.40;10.10;;;;;;;13.64;88.76;101647.47;5037756;28;20036;-59
2022/10/05 01:32:34;;;;;;;15.20;9.82;;;;;;;13.66;88.60;101648.16;5040527;28;20448;-58
2022/10/05 01:35:15;;;;;;;16.42;9.70;;;;;;;13.63;88.93;101645.81;5042669;28;20033;-57
2022/10/05 01:38:18;;;;;;;17.48;9.90;;;;;;;13.65;88.73;101651.78;5040487;28;20044;-58
2022/10/05 01:40:59;;;;;;;16.20;10.02;;;;;;;13.62;88.79;101646.81;5040766;28;20184;-59
2022/10/05 01:43:27;;;;;;;15.50;9.32;;;;;;;13.62;88.74;101642.28;5049098;28;20024;-58
2022/10/05 01:45:58;;;;;;;15.23;9.90;;;;;;;13.61;89.01;101645.13;5035259;28;20036;-58
2022/10/05 01:48:40;;;;;;;15.82;9.85;;;;;;;13.61;88.85;101639.81;5040362;28;20029;-57
2022/10/05 01:51:26;;;;;;;14.32;9.88;;;;;;;13.61;88.80;101634.47;5039639;28;20048;-59
2022/10/05 01:54:05;;;;;;;14.57;9.77;;;;;;;13.61;89.03;101634.47;5039014;28;20070;-57
2022/10/05 01:56:42;;;;;;;16.48;10.07;;;;;;;13.59;89.33;101626.63;5039377;28;20033;-58
2022/10/05 01:59:49;;;;;;;15.38;10.07;;;;;;;13.59;89.06;101623.97;5034087;28;20424;-57
2022/10/05 02:02:17;;;;;;;16.25;10.00;;;;;;;13.57;89.20;101607.31;5037686;28;20061;-61
2022/10/05 02:04:50;;;;;;;13.73;9.43;;;;;;;13.56;88.91;101606.47;5037697;28;20051;-59
2022/10/05 02:07:41;;;;;;;17.83;10.07;;;;;;;13.58;89.03;101609.81;5047391;28;20055;-57
2022/10/05 02:10:12;;;;;;;16.35;9.70;;;;;;;13.57;88.90;101607.31;5033680;28;20570;-59
2022/10/05 02:12:38;;;;;;;15.07;9.30;;;;;;;13.57;89.10;101592.16;5040731;28;20345;-57
2022/10/05 02:15:14;;;;;;;16.13;9.60;;;;;;;13.58;89.00;101601.81;5034140;28;20039;-58
2022/10/05 02:17:47;;;;;;;13.50;9.35;;;;;;;13.55;89.42;101588.81;5049933;28;20465;-58
2022/10/05 02:20:21;;;;;;;14.40;9.60;;;;;;;13.51;88.89;101586.66;5035090;28;20032;-59
2022/10/05 02:22:50;;;;;;;13.70;9.70;;;;;;;13.54;88.60;101592.50;5038657;28;20029;-58
2022/10/05 02:25:20;;;;;;;13.60;9.63;;;;;;;13.56;89.02;101601.16;5047545;28;20025;-58
2022/10/05 02:27:53;;;;;;;16.58;9.85;;;;;;;13.58;89.05;101596.47;5041753;28;20029;-58
2022/10/05 02:30:19;;;;;;;15.65;9.60;;;;;;;13.58;88.63;101587.66;5037563;28;20041;-58
2022/10/05 02:32:55;;;;;;;14.65;9.60;;;;;;;13.56;88.66;101590.50;5036328;28;20472;-58
2022/10/05 02:35:21;;;;;;;14.02;9.10;;;;;;;13.58;88.67;101582.34;5044088;28;20079;-58
2022/10/05 02:37:59;;;;;;;13.98;9.20;;;;;;;13.53;88.69;101574.81;5041328;28;20060;-59
2022/10/05 02:40:50;;;;;;;13.50;9.00;;;;;;;13.57;88.70;101581.50;5041989;28;20057;-57
2022/10/05 02:43:41;;;;;;;14.40;9.00;;;;;;;13.61;88.41;101567.84;5031336;28;20045;-58
2022/10/05 02:46:35;;;;;;;13.55;8.35;;;;;;;13.58;88.60;101567.16;5043939;28;20061;-58
2022/10/05 02:49:14;;;;;;;12.10;8.60;;;;;;;13.57;88.80;101565.50;5046507;28;20064;-58
2022/10/05 02:51:49;;;;;;;14.88;9.13;;;;;;;13.56;88.59;101558.50;5045474;28;20216;-58
2022/10/05 02:54:18;;;;;;;15.27;9.00;;;;;;;13.58;88.97;101566.34;5040372;28;20128;-57
2022/10/05 02:57:06;;;;;;;13.25;8.63;;;;;;;13.57;88.36;101559.34;5040788;28;20033;-58
2022/10/05 03:00:00;;;;;;;16.20;8.60;;;;;;;13.56;88.99;101563.00;5037975;28;20025;-58
2022/10/05 03:02:35;;;;;;;14.20;9.20;;;;;;;13.54;88.93;101557.84;5037481;28;20075;-58
2022/10/05 03:05:22;;;;;;;12.65;8.98;;;;;;;13.54;89.13;101552.53;5041362;28;20033;-57
2022/10/05 03:07:51;;;;;;;15.02;9.10;;;;;;;13.51;89.13;101544.03;5045313;28;20095;-58
2022/10/05 03:10:27;;;;;;;15.45;8.93;;;;;;;13.50;89.07;101548.50;5044581;28;20654;-57
2022/10/05 03:13:10;;;;;;;14.63;9.52;;;;;;;13.48;88.93;101545.19;5035660;28;20377;-59
2022/10/05 03:15:58;;;;;;;;;;;;;;;13.57;88.50;101540.69;5041185;28;20084;-58
2022/10/05 03:18:53;;;;;;;15.27;8.90;;;;;;;13.51;89.29;101538.69;5052533;28;19920;-57
2022/10/05 03:21:34;;;;;;;15.02;8.93;;;;;;;13.46;89.33;101536.50;5037202;28;20041;-58
2022/10/05 03:24:20;;;;;;;12.57;8.73;;;;;;;13.45;89.39;101535.66;5045525;28;20032;-58
2022/10/05 03:27:04;;;;;;;14.52;8.77;;;;;;;13.45;89.39;101532.16;5038076;28;20021;-58
2022/10/05 03:29:49;;;;;;;12.57;8.77;;;;;;;13.44;89.80;101538.47;5050238;28;20036;-57
2022/10/05 03:32:27;;;;;;;13.43;8.63;;;;;;;13.43;89.80;101534.16;5048945;28;20029;-57
2022/10/05 03:35:01;;;;;;;16.98;9.05;;;;;;;13.41;89.83;101538.78;5046102;28;20025;-57
2022/10/05 03:37:38;;;;;;;14.15;8.40;;;;;;;13.39;89.77;101540.78;5044205;28;20053;-57
2022/10/05 03:40:25;;;;;;;13.93;8.40;;;;;;;13.41;89.94;101538.78;5035196;28;20041;-58
2022/10/05 03:43:02;;;;;;;13.05;8.43;;;;;;;13.41;90.04;101538.78;5043401;28;20038;-57
2022/10/05 03:45:57;;;;;;;13.77;8.75;;;;;;;13.40;89.81;101531.78;5046257;28;20041;-57
2022/10/05 03:48:31;;;;;;;14.13;8.63;;;;;;;13.37;89.97;101529.47;5038858;28;20098;-58
2022/10/05 03:51:05;;;;;;;13.18;8.48;;;;;;;13.38;90.19;101539.13;5041191;28;20036;-57
2022/10/05 03:53:59;;;;;;;12.95;9.00;;;;;;;13.39;89.76;101535.47;5040325;28;20086;-58
2022/10/05 03:56:40;;;;;;;14.13;9.18;;;;;;;13.37;90.03;101526.81;5051671;28;20037;-57
2022/10/05 03:59:21;;;;;;;16.20;9.15;;;;;;;13.36;89.95;101531.28;5044566;28;20034;-58
2022/10/05 04:01:52;;;;;;;14.30;9.13;;;;;;;13.37;89.99;101535.63;5039672;28;20041;-57
2022/10/05 04:04:25;;;;;;;14.73;9.60;;;;;;;13.36;89.95;101543.78;5038579;28;20040;-58
2022/10/05 04:06:52;;;;;;;15.35;9.48;;;;;;;13.27;89.93;101527.78;5042921;28;20385;-59
2022/10/05 04:09:26;;;;;;;15.05;9.63;;;;;;;13.31;90.24;101534.44;5047556;28;20063;-57
2022/10/05 04:12:32;;;;;;;15.10;9.85;;;;;;;13.38;90.15;101541.78;5039442;28;20037;-58
2022/10/05 04:15:02;;;;;;;15.65;9.98;;;;;;;13.33;90.18;101539.63;5038928;28;20041;-57
2022/10/05 04:17:36;;;;;;;16.17;9.73;;;;;;;13.29;90.46;101536.47;5045522;28;20037;-58
2022/10/05 04:20:15;;;;;;;17.00;10.43;;;;;;;13.31;90.23;101546.91;5041180;28;20029;-58
2022/10/05 04:23:30;;;;;;;16.10;10.27;;;;;;;13.32;90.30;101541.44;5036455;28;20039;-58
2022/10/05 04:26:03;;;;;;;14.30;10.07;;;;;;;13.27;90.48;101537.63;5037934;28;20075;-57
2022/10/05 04:28:51;;;;;;;17.48;10.60;;;;;;;13.29;90.58;101530.28;5048139;28;20033;-58
2022/10/05 04:31:36;;;;;;;14.73;10.23;;;;;;;13.23;90.65;101526.41;5047206;28;20029;-58
2022/10/05 04:34:31;;;;;;;17.15;9.95;;;;;;;13.27;90.82;101526.97;5040445;28;20895;-58
2022/10/05 04:37:02;;;;;;;16.80;10.18;;;;;;;13.24;90.66;101527.25;5037723;28;20448;-58
2022/10/05 04:39:52;;;;;;;14.73;9.80;;;;;;;13.26;90.71;101525.25;5042400;28;20063;-58
2022/10/05 04:42:30;;;;;;;13.38;9.23;;;;;;;13.25;90.72;101519.13;5037531;28;20025;-58
2022/10/05 04:45:04;;;;;;;15.85;9.90;;;;;;;13.25;90.77;101519.13;5041383;28;20068;-58
2022/10/05 04:47:48;;;;;;;14.50;9.65;;;;;;;13.31;90.63;101523.78;5036225;28;20404;-57
2022/10/05 04:50:26;;;;;;;14.13;9.20;;;;;;;13.25;90.23;101518.28;5045586;28;20061;-58
2022/10/05 04:53:19;;;;;;;18.10;8.95;;;;;;;13.27;90.26;101510.97;5052206;28;20033;-58
2022/10/05 04:56:06;;;;;;;12.65;7.82;;;;;;;13.29;89.62;101515.16;5043800;28;20412;-60
2022/10/05 04:59:01;;;;;;;14.45;7.93;;;;;;;13.29;89.47;101515.16;5045675;28;20071;-58
2022/10/05 05:01:55;;;;;;;13.43;8.07;;;;;;;13.30;88.97;101506.16;5040986;28;20051;-58
2022/10/05 05:04:31;;;;;;;;;;;;;;;13.42;88.46;101509.31;5037879;28;20045;-58
2022/10/05 05:06:56;;;;;;;13.43;7.57;;;;;;;13.35;88.46;101512.81;5048954;28;20360;-57
2022/10/05 05:09:28;;;;;;;13.82;7.60;;;;;;;13.30;88.82;101511.47;5040197;28;20059;-57
2022/10/05 05:12:09;;;;;;;12.57;7.65;;;;;;;13.32;88.79;101514.81;5043132;28;20036;-57
2022/10/05 05:14:51;;;;;;;10.35;7.30;;;;;;;13.32;88.71;101509.47;5044091;28;20029;-57
2022/10/05 05:17:28;;;;;;;11.65;7.30;;;;;;;13.34;88.82;101511.13;5038428;28;20048;-58
2022/10/05 05:20:18;;;;;;;11.82;7.38;;;;;;;13.35;89.07;101508.31;5051228;28;20036;-58
2022/10/05 05:22:56;;;;;;;12.48;7.45;;;;;;;13.32;88.91;101504.16;5042911;28;20044;-58
2022/10/05 05:25:35;;;;;;;11.40;7.50;;;;;;;13.33;89.04;101499.66;5042097;28;20063;-58
2022/10/05 05:28:29;;;;;;;12.00;7.50;;;;;;;13.33;88.94;101505.00;5034149;28;20033;-57
2022/10/05 05:31:23;;;;;;;11.57;7.35;;;;;;;13.32;88.88;101504.16;5040088;28;20040;-56
2022/10/05 05:33:58;;;;;;;10.77;7.38;;;;;;;13.30;88.83;101505.31;5037676;28;20678;-57
2022/10/05 05:36:49;;;;;;;11.88;7.40;;;;;;;13.27;88.84;101506.47;5034069;28;20029;-57
2022/10/05 05:39:23;;;;;;;14.13;7.55;;;;;;;13.25;88.96;101495.16;5035183;28;20046;-57
2022/10/05 05:41:57;;;;;;;11.43;7.50;;;;;;;13.27;89.38;101503.81;5045126;28;20029;-60
2022/10/05 05:44:26;;;;;;;11.30;7.80;;;;;;;13.24;89.04;101496.16;5039471;28;20036;-57
2022/10/05 05:47:02;;;;;;;11.55;7.80;;;;;;;13.19;89.21;101483.31;5041430;28;20033;-58
2022/10/05 05:49:49;;;;;;;14.65;7.57;;;;;;;13.28;89.38;101496.66;5039267;28;20377;-58
2022/10/05 05:52:24;;;;;;;10.73;6.95;;;;;;;13.24;89.24;101485.50;5039637;28;20067;-56
2022/10/05 05:55:12;;;;;;;11.50;6.95;;;;;;;13.24;89.16;101485.50;5034650;28;20061;-58
2022/10/05 05:57:42;;;;;;;11.13;6.90;;;;;;;13.22;88.91;101476.81;5032560;28;20437;-58
2022/10/05 06:00:07;;;;;;;9.30;6.15;;;;;;;13.23;89.04;101485.66;5034258;28;20029;-59
2022/10/05 06:02:40;;;;;;;9.82;6.70;;;;;;;13.24;88.80;101485.50;5038446;28;20021;-57
2022/10/05 06:05:22;;;;;;;9.82;6.75;;;;;;;13.25;88.95;101481.84;5026706;28;20440;-58
2022/10/05 06:07:50;;;;;;;9.27;6.50;;;;;;;13.26;88.82;101480.84;5030675;28;20040;-58
2022/10/05 06:10:28;;;;;;;12.38;7.00;;;;;;;13.27;88.47;101485.16;5041347;28;20119;-57
2022/10/05 06:12:57;;;;;;;9.85;6.47;;;;;;;13.25;88.03;101487.16;5031435;28;20035;-59
2022/10/05 06:15:33;;;;;;;11.50;6.40;;;;;;;13.24;88.55;101480.19;5038787;28;20715;-58
2022/10/05 06:18:03;;;;;;;8.93;6.07;;;;;;;13.22;88.85;101481.34;5030308;28;20061;-58
2022/10/05 06:20:58;;;;;;;9.57;6.00;;;;;;;13.29;88.34;101487.66;5031815;28;20542;-58
2022/10/05 06:23:34;;;;;;;8.82;5.90;;;;;;;13.27;88.20;101485.16;5034734;28;20481;-58
2022/10/05 06:26:28;;;;;;;8.55;5.80;;;;;;;13.30;88.35;101478.66;5036236;28;20032;-57
2022/10/05 06:28:59;;;;;;;9.25;6.28;;;;;;;13.28;88.04;101481.50;5037509;28;20021;-59
2022/10/05 06:31:53;;;;;;;8.05;5.90;;;;;;;13.31;88.41;101478.50;5039993;28;20047;-57
2022/10/05 06:34:54;;;;;;;9.35;5.60;;;;;;;13.35;88.20;101478.16;5034575;28;20033;-58
2022/10/05 06:37:28;;;;;;;9.18;5.90;;;;;;;13.34;88.15;101473.84;5033730;28;20044;-59
2022/10/05 06:40:03;;;;;;;10.15;6.07;;;;;;;13.35;88.36;101475.50;5032515;28;20247;-58
2022/10/05 06:42:41;;;;;;;8.48;5.65;;;;;;;13.36;88.11;101479.88;5036139;28;20047;-58
2022/10/05 06:45:24;;;;;;;14.80;5.70;;;;;;;13.36;88.25;101478.00;5033263;28;20039;-58
2022/10/05 06:48:15;;;;;;;9.47;5.53;;;;;;;13.40;88.22;101478.53;5030945;28;20032;-58
2022/10/05 06:50:44;;;;;;;8.88;5.88;;;;;;;13.38;88.22;101488.50;5039060;28;20033;-59
2022/10/05 06:53:40;;;;;;;8.18;5.95;;;;;;;13.43;88.23;101486.19;5038041;28;20024;-58
2022/10/05 06:56:09;;;;;;;9.82;5.88;;;;;;;13.40;88.17;101484.69;5038989;28;20032;-58
2022/10/05 06:59:09;;;;;;;11.82;6.45;;;;;;;13.44;88.44;101485.19;5035075;28;20095;-58
2022/10/05 07:01:43;;;;;;;8.13;5.97;;;;;;;13.44;88.08;101487.84;5040717;28;20090;-58
2022/10/05 07:04:16;;;;;;;10.38;5.95;;;;;;;13.48;87.88;101486.56;5035481;28;20037;-58
2022/10/05 07:06:51;;;;;;;9.65;6.40;;;;;;;13.51;88.35;101490.75;5040524;28;20033;-59
2022/10/05 07:09:34;;;;;;;11.30;6.35;;;;;;;13.53;88.21;101494.88;5041244;28;20044;-57
2022/10/05 07:12:10;;;;;;;9.18;6.15;;;;;;;13.54;87.70;101485.91;5039718;28;20499;-57
2022/10/05 07:15:06;;;;;;;9.20;6.20;;;;;;;13.57;87.87;101485.56;5033932;28;20461;-59
2022/10/05 07:17:50;;;;;;;10.57;6.10;;;;;;;13.61;87.82;101480.72;5035512;28;20041;-57
2022/10/05 07:20:31;;;;;;;9.43;6.60;;;;;;;13.58;87.81;101479.22;5045390;28;20132;-57
2022/10/05 07:23:18;;;;;;;8.82;5.78;;;;;;;13.64;87.42;101490.22;5047178;28;20034;-57
2022/10/05 07:25:54;;;;;;;9.38;5.97;;;;;;;13.68;87.83;101491.56;5035405;28;20038;-58
2022/10/05 07:28:35;;;;;;;10.00;6.35;;;;;;;13.71;87.27;101491.22;5044376;28;20163;-59
2022/10/05 07:31:10;;;;;;;10.60;6.18;;;;;;;13.68;87.49;101492.38;5041821;28;20083;-57
2022/10/05 07:34:02;;;;;;;11.82;5.90;;;;;;;13.74;87.14;101493.56;5044110;28;20037;-57
2022/10/05 07:40:32;;;;;;;9.40;5.70;;;;;;;13.79;86.90;101488.56;5029448;28;20087;-57
2022/10/05 07:43:36;;;;;;;9.25;5.97;;;;;;;13.88;86.88;101484.06;5046312;28;20040;-57
2022/10/05 07:46:15;;;;;;;12.73;6.00;;;;;;;13.89;86.11;101498.22;5039664;28;20036;-57
2022/10/05 07:48:47;;;;;;;9.27;5.63;;;;;;;13.90;86.54;101494.56;5033871;28;20029;-57
2022/10/05 07:51:28;;;;;;;7.07;5.82;;;;;;;13.92;86.93;101497.91;5038051;28;20037;-57
2022/10/05 07:54:01;;;;;;;9.68;5.90;;;;;;;13.94;86.76;101501.22;5037214;28;20029;-60
2022/10/05 07:56:39;;;;;;;10.38;5.78;;;;;;;13.99;86.44;101493.56;5044853;28;20033;-58
2022/10/05 07:59:29;;;;;;;7.18;5.40;;;;;;;14.01;86.78;101493.41;5039745;28;20171;-59
2022/10/05 08:02:04;;;;;;;9.35;5.70;;;;;;;13.96;85.90;101483.25;5041486;28;20068;-59
2022/10/05 08:04:47;;;;;;;9.82;5.60;;;;;;;14.04;86.50;101495.72;5044693;28;20552;-58
2022/10/05 08:07:16;;;;;;;8.15;5.25;;;;;;;14.05;86.40;101492.88;5044273;28;20405;-62
2022/10/05 08:09:52;;;;;;;7.72;5.35;;;;;;;14.07;86.04;101490.88;5035366;28;20473;-59
2022/10/05 08:12:30;;;;;;;8.40;5.50;;;;;;;14.13;86.39;101490.19;5041999;28;20124;-59
2022/10/05 08:14:57;;;;;;;8.43;5.32;;;;;;;14.15;85.69;101491.88;5044290;28;20025;-59
2022/10/05 08:17:37;;;;;;;8.13;5.00;;;;;;;14.20;86.30;101489.50;5040879;28;20029;-59
2022/10/05 08:20:24;;;;;;;8.93;5.20;;;;;;;14.28;85.91;101481.53;5033422;28;20064;-58
2022/10/05 08:22:56;;;;;;;6.45;4.93;;;;;;;14.27;85.67;101477.19;5045786;28;20048;-59
2022/10/05 08:25:39;;;;;;;8.98;5.07;;;;;;;14.34;84.84;101477.31;5041106;28;20028;-59
2022/10/05 08:28:16;;;;;;;8.40;5.07;;;;;;;14.37;85.18;101480.47;5040560;28;20032;-59
2022/10/05 08:30:55;;;;;;;12.15;5.20;;;;;;;14.41;85.33;101469.47;5048531;28;20283;-60
2022/10/05 08:33:22;;;;;;;8.95;4.90;;;;;;;14.48;85.22;101465.13;5034872;28;20033;-59
2022/10/05 08:35:59;;;;;;;6.38;4.90;;;;;;;14.52;84.77;101469.09;5033721;28;20041;-58
2022/10/05 08:38:30;;;;;;;9.45;5.10;;;;;;;14.56;84.26;101472.25;5032385;28;20076;-58
2022/10/05 08:41:51;;;;;;;6.70;4.72;;;;;;;14.62;85.03;101467.09;5051583;28;20574;-63
2022/10/05 08:44:35;;;;;;;9.63;4.88;;;;;;;14.66;84.54;101468.38;5033638;28;20099;-60
2022/10/05 08:47:09;;;;;;;6.40;4.72;;;;;;;14.68;84.59;101468.22;5036294;28;20041;-58
2022/10/05 08:50:11;;;;;;;8.52;4.90;;;;;;;14.73;84.45;101468.53;5038471;28;20318;-57
2022/10/05 08:53:06;;;;;;;7.75;4.88;;;;;;;14.77;83.59;101461.03;5024134;28;20503;-57
2022/10/05 08:55:59;;;;;;;6.70;4.80;;;;;;;14.79;83.90;101459.00;5040070;28;20423;-58
2022/10/05 08:58:54;;;;;;;9.20;4.93;;;;;;;14.83;83.74;101457.66;5035916;28;20038;-58
2022/10/05 09:01:51;;;;;;;7.60;4.55;;;;;;;14.87;83.45;101458.13;5040594;28;20041;-59
2022/10/05 09:04:31;;;;;;;6.30;4.60;;;;;;;14.92;83.26;101453.94;5035560;28;20037;-58
2022/10/05 09:07:27;;;;;;;7.90;4.80;;;;;;;14.97;83.73;101453.41;5037265;28;20025;-58
2022/10/05 09:10:12;;;;;;;9.45;4.57;;;;;;;15.05;83.34;101452.53;5041872;28;20072;-58
2022/10/05 09:13:18;;;;;;;7.20;4.50;;;;;;;15.06;83.19;101447.00;5032828;28;20029;-59
2022/10/05 09:16:03;;;;;;;10.65;4.65;;;;;;;15.14;81.71;101451.47;5032441;28;20017;-57
2022/10/05 09:18:50;;;;;;;5.15;4.32;;;;;;;15.19;82.19;101451.78;5037003;28;20035;-59
2022/10/05 09:21:41;;;;;;;8.80;4.60;;;;;;;15.24;82.13;101439.75;5037999;28;20117;-58
2022/10/05 09:24:13;;;;;;;5.60;4.00;;;;;;;15.29;82.25;101440.03;5034280;28;20041;-62
2022/10/05 09:26:44;;;;;;;6.47;4.38;;;;;;;15.33;81.33;101435.97;5035755;28;20087;-60
2022/10/05 09:29:46;;;;;;;8.38;4.18;;;;;;;15.39;81.30;101440.59;5035239;28;20052;-59
2022/10/05 09:32:30;;;;;;;7.63;4.00;;;;;;;15.43;80.77;101441.94;5031084;28;20036;-59
2022/10/05 09:35:04;;;;;;;7.25;4.30;;;;;;;15.46;81.41;101443.41;5033405;28;20128;-58
2022/10/05 09:37:54;;;;;;;6.45;3.90;;;;;;;15.54;81.17;101442.50;5041338;28;20151;-58
2022/10/05 09:41:07;;;;;;;6.68;4.45;;;;;;;15.61;80.89;101446.13;5049647;28;20057;-59
2022/10/05 09:44:11;;;;;;;6.18;4.22;;;;;;;15.62;80.72;101438.91;5046535;28;20067;-58
2022/10/05 09:47:10;;;;;;;8.32;4.40;;;;;;;15.62;81.00;101434.41;5044469;28;20132;-58
2022/10/05 09:49:46;;;;;;;8.02;4.20;;;;;;;15.66;79.51;101427.72;5030985;28;20036;-57
2022/10/05 09:52:46;;;;;;;5.70;4.28;;;;;;;15.69;80.11;101426.50;5042880;28;20037;-60
2022/10/05 09:55:32;;;;;;;8.70;4.35;;;;;;;15.72;80.00;101428.81;5032310;28;20633;-58
2022/10/05 09:58:27;;;;;;;5.38;4.15;;;;;;;15.69;80.19;101413.97;5034561;28;20124;-58
2022/10/05 10:01:01;;;;;;;6.88;4.18;;;;;;;15.79;79.60;101418.22;5030990;28;20155;-59
2022/10/05 10:04:14;;;;;;;6.88;3.90;;;;;;;15.86;80.08;101413.81;5032813;28;20472;-58
2022/10/05 10:07:10;;;;;;;5.95;4.22;;;;;;;15.91;79.29;101411.44;5035515;28;20049;-58
2022/10/05 10:09:56;;;;;;;7.18;3.90;;;;;;;15.94;79.57;101400.38;5037994;28;20538;-58
2022/10/05 10:12:57;;;;;;;6.88;4.00;;;;;;;16.05;79.79;101408.97;5046747;28;20086;-58
2022/10/05 10:15:51;;;;;;;7.82;4.00;;;;;;;16.08;79.25;101401.41;5038270;28;20053;-58
2022/10/05 10:18:36;;;;;;;6.75;3.92;;;;;;;16.14;78.36;101405.19;5038072;28;20040;-59
2022/10/05 10:21:28;;;;;;;9.77;3.88;;;;;;;16.21;78.75;101400.75;5038297;28;20090;-61
2022/10/05 10:24:10;;;;;;;7.93;4.00;;;;;;;16.29;78.53;101399.00;5045090;28;20082;-61
2022/10/05 10:27:08;;;;;;;6.50;3.80;;;;;;;16.39;78.56;101388.84;5041231;28;20080;-62
2022/10/05 10:29:49;;;;;;;7.13;3.70;;;;;;;16.52;78.60;101385.47;5048567;28;20101;-60
2022/10/05 10:32:32;;;;;;;6.38;3.67;;;;;;;16.60;77.83;101381.88;5036892;28;20033;-62
2022/10/05 10:35:39;;;;;;;7.78;3.58;;;;;;;16.66;77.65;101375.75;5031799;28;20080;-62
2022/10/05 10:38:10;;;;;;;6.22;3.60;;;;;;;16.70;76.79;101382.41;5062322;28;20097;-62
2022/10/05 10:40:41;;;;;;;6.85;3.90;;;;;;;16.68;76.46;101373.75;5041206;28;20045;-62
2022/10/05 10:43:39;;;;;;;7.78;3.92;;;;;;;16.73;76.76;101371.31;5050290;28;20491;-62
2022/10/05 10:46:35;;;;;;;8.10;3.92;;;;;;;16.77;76.65;101369.06;5047541;28;20029;-62
2022/10/05 10:49:22;;;;;;;6.00;3.70;;;;;;;16.83;76.72;101370.19;5030970;28;20045;-61
2022/10/05 10:52:13;;;;;;;6.15;3.85;;;;;;;16.92;76.57;101369.00;5045027;28;20514;-62
2022/10/05 10:55:26;;;;;;;5.75;3.28;;;;;;;16.96;75.72;101359.59;5037326;28;20092;-62
2022/10/05 10:58:26;;;;;;;6.13;3.60;;;;;;;17.04;76.21;101362.19;5032921;28;20124;-62
2022/10/05 11:01:22;;;;;;;4.72;3.50;;;;;;;17.14;75.73;101353.81;5036596;28;20043;-62
2022/10/05 11:04:08;;;;;;;8.93;3.67;;;;;;;17.20;75.29;101361.09;5030999;28;20038;-61
2022/10/05 11:07:01;;;;;;;8.38;3.40;;;;;;;17.26;75.03;101354.13;5036763;28;20040;-63
2022/10/05 11:09:50;;;;;;;5.70;3.50;;;;;;;17.33;74.06;101340.78;5033918;28;20082;-61
2022/10/05 11:12:53;;;;;;;7.18;3.20;;;;;;;17.38;74.19;101345.53;5036489;28;20477;-63
2022/10/05 11:15:51;;;;;;;6.77;3.23;;;;;;;17.41;73.75;101353.22;5031037;28;20087;-61
2022/10/05 11:18:29;;;;;;;4.97;3.15;;;;;;;17.45;72.60;101354.47;5030313;28;20029;-62
2022/10/05 11:21:35;;;;;;;12.15;3.10;;;;;;;17.42;73.83;101346.81;5040611;28;20496;-61
2022/10/05 11:24:37;;;;;;;6.72;3.10;;;;;;;17.46;72.85;101350.75;5042785;28;20048;-61
2022/10/05 11:27:23;;;;;;;5.25;3.08;;;;;;;17.50;73.65;101349.34;5030086;28;20508;-62
2022/10/05 11:30:03;;;;;;;8.40;2.90;;;;;;;17.54;72.81;101333.69;5044976;28;20480;-61
2022/10/05 11:32:55;;;;;;;10.10;3.40;;;;;;;17.58;73.61;101335.78;5039072;28;20057;-62
2022/10/05 11:35:45;;;;;;;6.78;2.90;;;;;;;17.67;73.83;101333.78;5034511;28;20555;-64
2022/10/05 11:38:35;;;;;;;6.78;3.03;;;;;;;17.77;72.91;101317.34;5046421;28;20033;-60
2022/10/05 11:41:17;;;;;;;7.07;2.92;;;;;;;17.84;72.52;101320.06;5042950;28;20060;-61
2022/10/05 11:44:02;;;;;;;9.82;3.03;;;;;;;17.95;71.88;101303.41;5040419;28;20116;-61
2022/10/05 11:46:58;;;;;;;10.82;3.15;;;;;;;18.09;71.08;101309.69;5037523;28;20037;-60
2022/10/05 11:49:35;;;;;;;8.52;2.90;;;;;;;18.23;70.33;101299.00;5038703;28;20025;-61
2022/10/05 11:52:03;;;;;;;8.82;2.80;;;;;;;18.25;70.88;101305.81;5046131;28;20091;-62
2022/10/05 11:54:46;;;;;;;10.52;2.83;;;;;;;18.40;70.01;101278.81;5052566;28;20119;-60
2022/10/05 11:57:18;;;;;;;13.75;3.28;;;;;;;18.44;69.63;101281.91;5037969;28;20037;-61
2022/10/05 11:59:55;;;;;;;7.13;2.95;;;;;;;18.57;68.77;101278.44;5042234;28;20030;-61
2022/10/05 12:02:48;;;;;;;7.95;2.80;;;;;;;18.71;69.16;101278.44;5035252;28;20143;-62
2022/10/05 12:05:14;;;;;;;;;;;;;;;18.73;69.16;101271.00;5041869;28;20044;-61
2022/10/05 12:07:57;;;;;;;6.95;2.63;;;;;;;18.77;67.91;101264.19;5046825;28;19928;-62
2022/10/05 12:11:03;;;;;;;8.05;2.63;;;;;;;18.80;68.32;101255.72;5034356;28;20029;-62
2022/10/05 12:13:40;;;;;;;11.98;2.60;;;;;;;18.86;68.82;101252.22;5041702;28;20119;-58
2022/10/05 12:16:22;;;;;;;9.85;2.60;;;;;;;18.88;68.24;101242.06;5035078;28;20481;-57
2022/10/05 12:18:51;;;;;;;4.13;2.40;;;;;;;19.00;69.51;101249.50;5033127;28;20057;-58
2022/10/05 12:21:27;;;;;;;7.22;2.58;;;;;;;19.04;67.26;101242.72;5033857;28;20020;-58
2022/10/05 12:24:03;;;;;;;8.25;2.60;;;;;;;18.92;68.10;101237.13;5039824;28;20235;-57
2022/10/05 12:26:33;;;;;;;5.82;2.50;;;;;;;18.99;68.16;101239.81;5038411;28;20095;-57
2022/10/05 12:29:31;;;;;;;8.60;2.70;;;;;;;19.00;68.08;101233.38;5032611;28;20079;-58
2022/10/05 12:32:11;;;;;;;10.90;2.50;;;;;;;18.91;68.02;101232.78;5032761;28;20025;-58
2022/10/05 12:34:54;;;;;;;4.28;2.40;;;;;;;19.08;68.08;101235.88;5037514;28;20029;-58